Henniker, NH

6:45 PM EST on February 20, 2017 (GMT -0500)
New England College | | Change Station
Active Advisory: Small Craft Advisory

Elev 469 ft 43.18 °N, 71.82 °W | Updated 1 minute ago

Clear
Clear
33.0 °F
Feels Like 33 °F
N
1.0
Wind Variable Wind from West
Gusts 2.0 mph

Today
High -- | Low -- °F
--% Chance of Precip.
Yesterday
High -- | Low -- °F
Precip. -- in
Pressure 30.29 in
Visibility 10.0 miles
Clouds Clear
Windchill 33 °F
Dew Point 18 °F
Humidity 53%
Rainfall 0.00 in
Snow Depth Not available.
6:37 AM 5:25 PM
Waning Crescent, 30% visible
METAR KCON 202251Z AUTO 32005KT 10SM CLR 02/M10 A3028 RMK AO2 SLP257 T00171100 $
Pressure 30.29 in
Visibility 10.0 miles
Clouds Clear
Windchill 33 °F
Dew Point 18 °F
Humidity 53%
Rainfall 0.00 in
Snow Depth Not available.
6:37 AM 5:25 PM
Waning Crescent, 30% visible
METAR KCON 202251Z AUTO 32005KT 10SM CLR 02/M10 A3028 RMK AO2 SLP257 T00171100 $

Get Your Daily Forecast Email!

Thanks for signing up!

Be on the lookout for a verification email in your inbox.

You'll start receiving the daily forecast at 8 AM.

×

10-Day Weather Forecast

Almanac

Astronomy

Feb. 20, 2017 Rise Set
Actual Time
Civil Twilight
Nautical Twilight
Astronomical Twilight
Moon
Length of Visible Light
Length of Day
Tomorrow will be .
, % of the Moon is Illuminated

Today's Extremes

State Highs State Lows

Community

WunderPhotos

Upload Photos

1,962,540 photos uploaded!

WunderBlog® & News

Nearby

Air Quality

  Air Quality AQ Index Pollutant
Not available.

Snow Depth

Station Depth Elevation

Earthquake Activity

City Distance Mag. Time & Date
Minimum magnitude displayed is 2.5.

Coastal Water Temperatures

Place Temperature

Stations

Nearby Weather Stations

Station Location Temp. Windchill Dew Point Humidity Wind Precip. Elev Updated Type
                   

Watches & Warnings

Small Craft Advisory
Issued: 3:16 PM EST Feb. 20, 2017 – National Weather Service

... Small Craft Advisory now in effect until 4 am EST Tuesday...

* winds... north 10 to 20 kt with gusts up to 30 kt.

* Seas... 2 to 4 feet.

Precautionary/preparedness actions...

A Small Craft Advisory means that wind speeds of 25 to 33 knots
are expected to produce hazardous wave conditions to small craft.
Inexperienced mariners... especially those operating smaller
vessels should avoid navigating in these conditions.